createdAt,value
2023-04-24T00:00:49.860Z,6.15
2023-04-24T00:03:16.666Z,6.13
2023-04-24T00:05:43.954Z,6.10
2023-04-24T00:08:10.896Z,6.06
2023-04-24T00:10:37.663Z,6.02
2023-04-24T00:13:04.592Z,5.99
2023-04-24T00:15:32.269Z,5.96
2023-04-24T00:17:59.577Z,5.93
2023-04-24T00:20:26.447Z,5.90
2023-04-24T00:22:53.289Z,5.88
2023-04-24T00:25:20.127Z,5.86
2023-04-24T00:27:47.161Z,5.86
2023-04-24T00:30:14.162Z,5.84
2023-04-24T00:32:40.902Z,5.81
2023-04-24T00:35:08.153Z,5.77
2023-04-24T00:37:34.944Z,5.73
2023-04-24T00:40:01.893Z,5.69
2023-04-24T00:42:28.834Z,5.66
2023-04-24T00:44:55.642Z,5.64
2023-04-24T00:47:23.040Z,5.62
2023-04-24T00:49:49.786Z,5.58
2023-04-24T00:52:18.744Z,5.54
2023-04-24T00:54:49.016Z,5.51
2023-04-24T00:57:18.641Z,5.48
2023-04-24T00:59:45.661Z,5.45
2023-04-24T01:02:12.561Z,5.42
2023-04-24T01:04:39.789Z,5.40
2023-04-24T01:07:11.670Z,5.38
2023-04-24T01:09:40.284Z,5.36
2023-04-24T01:12:07.206Z,5.34
2023-04-24T01:14:34.262Z,5.31
2023-04-24T01:17:01.514Z,5.30
2023-04-24T01:19:28.782Z,5.28
2023-04-24T01:21:55.715Z,5.23
2023-04-24T01:24:22.436Z,5.20
2023-04-24T01:26:49.293Z,5.19
2023-04-24T01:29:16.051Z,5.17
2023-04-24T01:31:44.087Z,5.14
2023-04-24T01:34:11.386Z,5.10
2023-04-24T01:36:38.196Z,5.08
2023-04-24T01:39:04.943Z,5.05
2023-04-24T01:41:31.720Z,5.03
2023-04-24T01:43:58.988Z,4.99
2023-04-24T01:46:25.798Z,4.95
2023-04-24T01:48:53.238Z,4.91
2023-04-24T01:51:20.293Z,4.88
2023-04-24T01:53:47.125Z,4.85
2023-04-24T01:56:14.199Z,4.85
2023-04-24T01:58:41.019Z,4.84
2023-04-24T02:01:07.833Z,4.82
2023-04-24T02:03:34.925Z,4.78
2023-04-24T02:06:01.910Z,4.74
2023-04-24T02:08:28.724Z,4.70
2023-04-24T02:10:55.520Z,4.66
2023-04-24T02:13:22.342Z,4.64
2023-04-24T02:15:49.113Z,4.62
2023-04-24T02:18:16.673Z,4.60
2023-04-24T02:20:43.405Z,4.59
2023-04-24T02:23:10.330Z,4.57
2023-04-24T02:25:37.073Z,4.56
2023-04-24T02:28:04.015Z,4.53
2023-04-24T02:30:30.858Z,4.50
2023-04-24T02:32:57.618Z,4.47
2023-04-24T02:35:24.456Z,4.44
2023-04-24T02:37:51.366Z,4.41
2023-04-24T02:40:18.132Z,4.37
2023-04-24T02:42:44.868Z,4.36
2023-04-24T02:45:11.923Z,4.35
2023-04-24T02:47:38.748Z,4.33
2023-04-24T02:50:06.618Z,4.31
2023-04-24T02:52:33.459Z,4.30
2023-04-24T02:55:00.314Z,4.29
2023-04-24T02:57:27.142Z,4.26
2023-04-24T02:59:53.883Z,4.25
2023-04-24T03:02:21.845Z,4.23
2023-04-24T03:04:49.473Z,4.21
2023-04-24T03:07:16.372Z,4.19
2023-04-24T03:09:44.069Z,4.17
2023-04-24T03:12:11.195Z,4.15
2023-04-24T03:14:38.011Z,4.13
2023-04-24T03:17:05.495Z,4.12
2023-04-24T03:19:32.442Z,4.11
2023-04-24T03:22:04.111Z,4.12
2023-04-24T03:24:31.759Z,4.13
2023-04-24T03:26:58.806Z,4.15
2023-04-24T03:29:54.838Z,4.22
2023-04-24T03:32:25.084Z,4.42
2023-04-24T03:34:52.574Z,4.74
2023-04-24T03:37:20.505Z,5.02
2023-04-24T03:39:53.840Z,5.32
2023-04-24T03:42:23.123Z,5.73
2023-04-24T03:44:52.548Z,6.22
2023-04-24T03:47:19.937Z,6.74
2023-04-24T03:49:47.385Z,7.24
2023-04-24T03:52:14.236Z,7.70
2023-04-24T03:54:41.490Z,8.08
2023-04-24T03:57:08.342Z,8.54
2023-04-24T03:59:35.857Z,9.10
2023-04-24T04:02:16.238Z,9.76
2023-04-24T04:04:43.855Z,10.33
2023-04-24T04:07:10.877Z,10.75
2023-04-24T04:09:38.128Z,11.15
2023-04-24T04:12:04.967Z,11.62
2023-04-24T04:14:32.835Z,12.07
2023-04-24T04:16:59.597Z,12.49
2023-04-24T04:19:26.669Z,12.82
2023-04-24T04:21:54.561Z,12.96
2023-04-24T04:24:47.336Z,12.97
2023-04-24T04:27:14.490Z,13.04
2023-04-24T04:29:49.860Z,13.28
2023-04-24T04:32:17.165Z,13.48
2023-04-24T04:34:46.518Z,13.53
2023-04-24T04:37:14.294Z,13.46
2023-04-24T04:39:52.031Z,13.51
2023-04-24T04:42:22.988Z,13.39
2023-04-24T04:44:51.359Z,13.07
2023-04-24T04:47:25.521Z,12.71
2023-04-24T04:49:54.060Z,12.36
2023-04-24T04:52:26.309Z,12.02
2023-04-24T04:54:57.198Z,11.66
2023-04-24T04:57:28.749Z,11.39
2023-04-24T04:59:56.041Z,11.17
2023-04-24T05:02:33.857Z,10.87
2023-04-24T05:05:01.208Z,10.58
2023-04-24T05:07:28.291Z,10.26
2023-04-24T05:09:55.837Z,9.96
2023-04-24T05:12:22.890Z,9.70
2023-04-24T05:14:52.023Z,9.52
2023-04-24T05:17:19.523Z,9.40
2023-04-24T05:19:47.418Z,9.28
2023-04-24T05:22:15.089Z,9.25
2023-04-24T05:24:48.715Z,9.29
2023-04-24T05:27:37.899Z,9.34
2023-04-24T05:30:08.836Z,9.39
2023-04-24T05:32:35.978Z,9.44
2023-04-24T05:35:02.951Z,9.50
2023-04-24T05:37:29.794Z,9.56
2023-04-24T05:39:57.260Z,9.62
2023-04-24T05:42:24.125Z,9.68
2023-04-24T05:44:53.249Z,9.73
2023-04-24T05:47:22.822Z,9.77
2023-04-24T05:49:50.659Z,9.82
2023-04-24T05:52:17.526Z,9.85
2023-04-24T05:54:44.334Z,9.87
2023-04-24T05:57:11.884Z,9.86
2023-04-24T05:59:53.360Z,9.86
2023-04-24T06:02:23.525Z,9.86
2023-04-24T06:04:53.253Z,9.90
2023-04-24T06:07:20.233Z,9.96
2023-04-24T06:09:47.012Z,10.04
2023-04-24T06:12:13.834Z,10.08
2023-04-24T06:14:56.866Z,10.14
2023-04-24T06:17:30.504Z,10.21
2023-04-24T06:19:57.465Z,10.28
2023-04-24T06:22:24.916Z,10.33
2023-04-24T06:24:51.872Z,10.36
2023-04-24T06:27:18.711Z,10.41
2023-04-24T06:29:45.662Z,10.47
2023-04-24T06:32:12.661Z,10.46
2023-04-24T06:34:39.897Z,10.49
2023-04-24T06:37:06.756Z,10.55
2023-04-24T06:39:33.545Z,10.62
2023-04-24T06:42:00.363Z,10.69
2023-04-24T06:44:27.229Z,10.77
2023-04-24T06:46:53.998Z,10.84
2023-04-24T06:49:21.255Z,10.92
2023-04-24T06:51:48.041Z,11.01
2023-04-24T06:54:14.872Z,11.11
2023-04-24T06:56:41.821Z,11.18
2023-04-24T06:59:08.597Z,11.25
2023-04-24T07:01:35.617Z,11.31
2023-04-24T07:04:02.689Z,11.36
2023-04-24T07:06:32.925Z,11.39
2023-04-24T07:09:01.369Z,11.46
2023-04-24T07:11:30.322Z,11.55
2023-04-24T07:13:57.182Z,11.65
2023-04-24T07:16:24.619Z,11.77
2023-04-24T07:18:51.510Z,11.88
2023-04-24T07:21:18.266Z,11.99
2023-04-24T07:23:45.027Z,12.08
2023-04-24T07:26:11.872Z,12.18
2023-04-24T07:28:38.665Z,12.29
2023-04-24T07:31:05.878Z,12.39
2023-04-24T07:33:32.683Z,12.49
2023-04-24T07:35:59.933Z,12.57
2023-04-24T07:38:26.954Z,12.69
2023-04-24T07:40:53.866Z,12.79
2023-04-24T07:43:21.324Z,12.89
2023-04-24T07:45:48.327Z,12.99
2023-04-24T07:48:17.338Z,13.10
2023-04-24T07:50:44.801Z,13.21
2023-04-24T07:53:11.715Z,13.31
2023-04-24T07:55:38.473Z,13.40
2023-04-24T07:58:05.302Z,13.49
2023-04-24T08:00:32.279Z,13.60
2023-04-24T08:02:59.159Z,13.71
2023-04-24T08:05:28.569Z,13.83
2023-04-24T08:07:56.224Z,13.94
2023-04-24T08:10:23.634Z,14.02
2023-04-24T08:12:50.365Z,14.11
2023-04-24T08:15:17.191Z,14.20
2023-04-24T08:17:44.059Z,14.30
2023-04-24T08:20:14.665Z,14.41
2023-04-24T08:22:42.205Z,14.51
2023-04-24T08:25:10.182Z,14.62
2023-04-24T08:27:37.836Z,14.71
2023-04-24T08:30:06.016Z,14.83
2023-04-24T08:32:32.921Z,14.94
2023-04-24T08:35:00.439Z,15.04
2023-04-24T08:37:27.750Z,15.14
2023-04-24T08:39:54.620Z,15.21
2023-04-24T08:42:21.892Z,15.25
2023-04-24T08:44:50.000Z,15.30
2023-04-24T08:47:17.220Z,15.36
2023-04-24T08:49:47.864Z,15.44
2023-04-24T08:52:14.607Z,15.50
2023-04-24T08:54:41.788Z,15.55
2023-04-24T08:57:09.030Z,15.56
2023-04-24T08:59:36.486Z,15.58
2023-04-24T09:02:03.277Z,15.64
2023-04-24T09:04:30.298Z,15.69
2023-04-24T09:06:58.432Z,15.74
2023-04-24T09:09:25.831Z,15.83
2023-04-24T09:11:54.725Z,15.91
2023-04-24T09:14:22.085Z,16.01
2023-04-24T09:19:19.412Z,16.29
2023-04-24T09:21:47.246Z,16.36
2023-04-24T09:24:19.000Z,16.45
2023-04-24T09:26:46.049Z,16.55
2023-04-24T09:29:19.429Z,16.64
2023-04-24T09:31:46.789Z,16.74
2023-04-24T09:34:13.805Z,16.81
2023-04-24T09:36:42.523Z,16.89
2023-04-24T09:39:13.879Z,16.97
2023-04-24T09:41:54.213Z,17.03
2023-04-24T09:44:24.432Z,17.11
2023-04-24T09:46:55.802Z,17.18
2023-04-24T09:49:30.285Z,17.24
2023-04-24T09:52:08.645Z,17.27
2023-04-24T09:54:37.817Z,17.32
2023-04-24T09:57:04.905Z,17.37
2023-04-24T09:59:31.795Z,17.43
2023-04-24T10:02:00.241Z,17.50
2023-04-24T10:04:28.164Z,17.56
2023-04-24T10:06:56.958Z,17.61
2023-04-24T10:09:25.158Z,17.65
2023-04-24T10:11:52.821Z,17.68
2023-04-24T10:14:22.214Z,17.75
2023-04-24T10:16:49.226Z,17.84
2023-04-24T10:19:16.613Z,17.89
2023-04-24T10:21:47.422Z,17.95
2023-04-24T10:24:18.849Z,18.01
2023-04-24T10:26:46.531Z,18.06
2023-04-24T10:29:14.128Z,18.12
2023-04-24T10:31:41.463Z,18.16
2023-04-24T10:34:09.417Z,18.21
2023-04-24T10:36:37.739Z,18.23
2023-04-24T10:39:07.665Z,18.22
2023-04-24T10:41:36.171Z,18.15
2023-04-24T10:44:13.794Z,18.06
2023-04-24T10:46:45.100Z,17.95
2023-04-24T10:49:12.433Z,17.86
2023-04-24T10:52:03.037Z,17.79
2023-04-24T10:54:45.604Z,17.78
2023-04-24T10:57:33.699Z,17.86
2023-04-24T11:00:20.575Z,18.00
2023-04-24T11:02:54.018Z,18.18
2023-04-24T11:05:21.924Z,18.33
2023-04-24T11:08:14.261Z,18.46
2023-04-24T11:10:44.759Z,18.58
2023-04-24T11:13:12.828Z,18.69
2023-04-24T11:15:43.320Z,18.78
2023-04-24T11:18:17.037Z,18.86
2023-04-24T11:20:45.106Z,18.95
2023-04-24T11:23:13.461Z,19.01
2023-04-24T11:25:40.424Z,19.10
2023-04-24T11:28:07.395Z,19.19
2023-04-24T11:30:37.437Z,19.27
2023-04-24T11:33:05.221Z,19.33
2023-04-24T11:35:36.757Z,19.36
2023-04-24T11:38:19.451Z,19.37
2023-04-24T11:40:50.844Z,19.33
2023-04-24T11:43:19.785Z,19.30
2023-04-24T11:45:49.444Z,19.29
2023-04-24T11:48:22.729Z,19.28
2023-04-24T11:50:50.941Z,19.24
2023-04-24T11:53:21.672Z,19.25
2023-04-24T11:55:48.660Z,19.30
2023-04-24T11:58:15.424Z,19.33
2023-04-24T12:00:42.444Z,19.32
2023-04-24T12:03:10.845Z,19.31
2023-04-24T12:05:38.851Z,19.32
2023-04-24T12:08:06.249Z,19.40
2023-04-24T12:10:33.537Z,19.49
2023-04-24T12:13:00.982Z,19.56
2023-04-24T12:15:28.070Z,19.59
2023-04-24T12:17:55.760Z,19.58
2023-04-24T12:20:31.195Z,19.60
2023-04-24T12:23:00.422Z,19.59
2023-04-24T12:25:29.969Z,19.57
2023-04-24T12:28:15.170Z,19.52
2023-04-24T12:30:49.544Z,19.44
2023-04-24T12:33:23.065Z,19.39
2023-04-24T12:35:54.240Z,19.36
2023-04-24T12:38:26.131Z,19.35
2023-04-24T12:41:09.873Z,19.35
2023-04-24T12:43:36.954Z,19.38
2023-04-24T12:46:04.472Z,19.47
2023-04-24T12:48:31.875Z,19.61
2023-04-24T12:51:02.355Z,19.79
2023-04-24T12:53:32.858Z,19.99
2023-04-24T12:55:59.671Z,20.21
2023-04-24T12:58:26.806Z,20.39
2023-04-24T13:00:53.780Z,20.53
2023-04-24T13:03:21.020Z,20.65
2023-04-24T13:05:48.190Z,20.74
2023-04-24T13:08:15.177Z,20.79
2023-04-24T13:10:42.282Z,20.80
2023-04-24T13:13:09.830Z,20.77
2023-04-24T13:15:36.962Z,20.66
2023-04-24T13:18:03.828Z,20.57
2023-04-24T13:20:30.940Z,20.50
2023-04-24T13:22:57.709Z,20.42
2023-04-24T13:25:37.035Z,20.32
2023-04-24T13:28:08.625Z,20.23
2023-04-24T13:30:37.260Z,20.14
2023-04-24T13:33:04.324Z,20.09
2023-04-24T13:35:31.180Z,20.07
2023-04-24T13:37:59.008Z,20.07
2023-04-24T13:40:25.877Z,20.06
2023-04-24T13:42:52.965Z,20.03
2023-04-24T13:45:25.100Z,20.00
2023-04-24T13:47:52.916Z,19.99
2023-04-24T13:50:20.701Z,19.97
2023-04-24T13:52:47.466Z,19.96
2023-04-24T13:55:14.335Z,19.93
2023-04-24T13:57:41.316Z,19.90
2023-04-24T14:00:11.524Z,19.87
2023-04-24T14:02:38.913Z,19.84
2023-04-24T14:05:07.091Z,19.83
2023-04-24T14:07:34.161Z,19.82
2023-04-24T14:10:01.145Z,19.81
2023-04-24T14:12:28.129Z,19.81
2023-04-24T14:14:54.992Z,19.81
2023-04-24T14:17:22.468Z,19.80
2023-04-24T14:19:49.361Z,19.79
2023-04-24T14:22:18.055Z,19.79
2023-04-24T14:24:44.962Z,19.80
2023-04-24T14:27:11.705Z,19.81
2023-04-24T14:29:38.472Z,19.80
2023-04-24T14:32:07.431Z,19.81
2023-04-24T14:34:40.187Z,19.80
2023-04-24T14:37:07.051Z,19.74
2023-04-24T14:39:34.545Z,19.67
2023-04-24T14:42:02.348Z,19.59
2023-04-24T14:44:29.884Z,19.51
2023-04-24T14:46:56.659Z,19.45
2023-04-24T14:49:24.437Z,19.39
2023-04-24T14:51:51.249Z,19.35
2023-04-24T14:54:18.015Z,19.29
2023-04-24T14:56:45.437Z,19.21
2023-04-24T14:59:12.360Z,19.09
2023-04-24T15:01:39.226Z,19.02
2023-04-24T15:04:06.533Z,18.94
2023-04-24T15:06:33.963Z,18.85
2023-04-24T15:09:01.027Z,18.75
2023-04-24T15:11:28.034Z,18.68
2023-04-24T15:13:54.812Z,18.62
2023-04-24T15:16:21.642Z,18.56
2023-04-24T15:18:48.381Z,18.48
2023-04-24T15:21:15.694Z,18.42
2023-04-24T15:23:42.412Z,18.39
2023-04-24T15:26:09.082Z,18.36
2023-04-24T15:28:36.122Z,18.35
2023-04-24T15:31:02.820Z,18.34
2023-04-24T15:33:29.507Z,18.33
2023-04-24T15:35:56.322Z,18.33
2023-04-24T15:38:23.045Z,18.34
2023-04-24T15:40:49.737Z,18.35
2023-04-24T15:43:17.465Z,18.37
2023-04-24T15:45:44.496Z,18.40
2023-04-24T15:48:11.279Z,18.45
2023-04-24T15:50:38.604Z,18.53
2023-04-24T15:53:06.208Z,18.61
2023-04-24T15:58:29.614Z,18.80
2023-04-24T16:00:57.299Z,18.82
2023-04-24T16:03:24.452Z,18.81
2023-04-24T16:05:52.697Z,18.77
2023-04-24T16:08:19.539Z,18.68
2023-04-24T16:10:47.070Z,18.56
2023-04-24T16:13:14.504Z,18.44
2023-04-24T16:15:41.784Z,18.30
2023-04-24T16:18:08.628Z,18.16
2023-04-24T16:20:35.555Z,18.04
2023-04-24T16:23:02.602Z,17.94
2023-04-24T16:25:29.405Z,17.85
2023-04-24T16:27:57.160Z,17.76
2023-04-24T16:30:24.008Z,17.68
2023-04-24T16:32:51.039Z,17.60
2023-04-24T16:35:17.790Z,17.51
2023-04-24T16:37:44.550Z,17.43
2023-04-24T16:40:12.330Z,17.37
2023-04-24T16:42:39.153Z,17.30
2023-04-24T16:45:06.940Z,17.24
2023-04-24T16:47:33.716Z,17.16
2023-04-24T16:50:00.636Z,17.05
2023-04-24T16:52:27.398Z,16.96
2023-04-24T16:54:54.215Z,16.84
2023-04-24T16:57:21.403Z,16.73
2023-04-24T16:59:48.163Z,16.63
2023-04-24T17:02:14.945Z,16.52
2023-04-24T17:04:41.901Z,16.43
2023-04-24T17:07:09.083Z,16.35
2023-04-24T17:09:36.130Z,16.26
2023-04-24T17:12:02.971Z,16.16
2023-04-24T17:14:29.834Z,16.08
2023-04-24T17:16:56.703Z,15.99
2023-04-24T17:19:23.680Z,15.89
2023-04-24T17:21:50.458Z,15.79
2023-04-24T17:24:17.208Z,15.70
2023-04-24T17:26:44.053Z,15.60
2023-04-24T17:29:12.484Z,15.50
2023-04-24T17:31:41.466Z,15.41
2023-04-24T17:34:10.270Z,15.31
2023-04-24T17:36:38.539Z,15.19
2023-04-24T17:39:05.271Z,15.08
2023-04-24T17:41:32.012Z,14.97
2023-04-24T17:43:58.760Z,14.85
2023-04-24T17:46:25.861Z,14.73
2023-04-24T17:48:53.028Z,14.62
2023-04-24T17:51:20.262Z,14.51
2023-04-24T17:53:48.736Z,14.41
2023-04-24T17:56:15.746Z,14.31
2023-04-24T17:58:43.416Z,14.20
2023-04-24T18:01:10.178Z,14.10
2023-04-24T18:03:38.976Z,14.00
2023-04-24T18:06:06.167Z,13.91
2023-04-24T18:08:32.909Z,13.82
2023-04-24T18:10:59.686Z,13.74
2023-04-24T18:13:30.957Z,13.66
2023-04-24T18:15:57.957Z,13.57
2023-04-24T18:18:24.878Z,13.49
2023-04-24T18:20:51.620Z,13.43
2023-04-24T18:23:18.368Z,13.37
2023-04-24T18:25:45.962Z,13.30
2023-04-24T18:28:12.850Z,13.23
2023-04-24T18:30:39.800Z,13.13
2023-04-24T18:33:06.560Z,13.03
2023-04-24T18:35:33.413Z,12.93
2023-04-24T18:38:00.381Z,12.82
2023-04-24T18:40:28.397Z,12.73
2023-04-24T18:42:56.710Z,12.66
2023-04-24T18:45:26.255Z,12.60
2023-04-24T18:47:54.365Z,12.55
2023-04-24T18:50:22.178Z,12.50
2023-04-24T18:52:49.102Z,12.46
2023-04-24T18:55:15.943Z,12.43
2023-04-24T18:57:42.697Z,12.40
2023-04-24T19:00:10.270Z,12.36
2023-04-24T19:02:37.195Z,12.30
2023-04-24T19:05:04.700Z,12.25
2023-04-24T19:07:31.461Z,12.20
2023-04-24T19:09:58.195Z,12.14
2023-04-24T19:12:25.350Z,12.09
2023-04-24T19:14:52.204Z,12.03
2023-04-24T19:17:23.631Z,11.98
2023-04-24T19:19:51.240Z,11.92
2023-04-24T19:22:20.116Z,11.85
2023-04-24T19:24:47.762Z,11.78
2023-04-24T19:27:14.619Z,11.72
2023-04-24T19:29:42.170Z,11.69
2023-04-24T19:32:09.175Z,11.63
2023-04-24T19:34:37.666Z,11.58
2023-04-24T19:37:06.136Z,11.54
2023-04-24T19:39:33.112Z,11.51
2023-04-24T19:42:01.286Z,11.49
2023-04-24T19:44:28.309Z,11.48
2023-04-24T19:46:55.074Z,11.45
2023-04-24T19:49:22.018Z,11.41
2023-04-24T19:51:49.296Z,11.37
2023-04-24T19:54:16.705Z,11.34
2023-04-24T19:56:43.510Z,11.32
2023-04-24T19:59:10.794Z,11.32
2023-04-24T20:01:39.778Z,11.29
2023-04-24T20:04:11.992Z,11.26
2023-04-24T20:06:39.056Z,11.23
2023-04-24T20:09:06.000Z,11.20
2023-04-24T20:11:33.706Z,11.15
2023-04-24T20:14:03.645Z,11.10
2023-04-24T20:16:31.297Z,11.05
2023-04-24T20:18:58.757Z,10.98
2023-04-24T20:21:25.510Z,10.91
2023-04-24T20:23:52.322Z,10.86
2023-04-24T20:26:19.139Z,10.82
2023-04-24T20:28:46.389Z,10.80
2023-04-24T20:31:14.010Z,10.77
2023-04-24T20:33:41.760Z,10.73
2023-04-24T20:36:11.454Z,10.69
2023-04-24T20:38:38.184Z,10.64
2023-04-24T20:41:05.379Z,10.61
2023-04-24T20:43:32.164Z,10.59
2023-04-24T20:45:59.305Z,10.58
2023-04-24T20:48:26.631Z,10.56
2023-04-24T20:50:53.970Z,10.53
2023-04-24T20:53:21.109Z,10.48
2023-04-24T20:58:39.065Z,10.42
2023-04-24T21:01:06.775Z,10.36
2023-04-24T21:03:34.178Z,10.28
2023-04-24T21:06:01.027Z,10.18
2023-04-24T21:08:28.071Z,10.07
2023-04-24T21:10:55.020Z,9.98
2023-04-24T21:13:22.078Z,9.91
2023-04-24T21:15:48.850Z,9.87
2023-04-24T21:18:16.272Z,9.83
2023-04-24T21:20:43.123Z,9.81
2023-04-24T21:23:09.891Z,9.79
2023-04-24T21:25:36.899Z,9.77
2023-04-24T21:28:03.905Z,9.74
2023-04-24T21:30:31.252Z,9.67
2023-04-24T21:32:58.029Z,9.57
2023-04-24T21:37:06.512Z,9.47
2023-04-24T21:39:33.316Z,9.38
2023-04-24T21:42:00.171Z,9.35
2023-04-24T21:44:26.942Z,9.30
2023-04-24T21:46:54.819Z,9.27
2023-04-24T21:49:21.867Z,9.24
2023-04-24T21:51:48.578Z,9.21
2023-04-24T21:54:15.550Z,9.18
2023-04-24T21:56:42.291Z,9.15
2023-04-24T21:59:09.632Z,9.13
2023-04-24T22:01:36.546Z,9.11
2023-04-24T22:04:04.424Z,9.08
2023-04-24T22:06:32.322Z,9.06
2023-04-24T22:08:59.269Z,9.02
2023-04-24T22:11:27.368Z,8.97
2023-04-24T22:13:55.048Z,8.94
2023-04-24T22:16:22.941Z,8.92
2023-04-24T22:18:49.954Z,8.91
2023-04-24T22:21:16.772Z,8.91
2023-04-24T22:31:18.500Z,8.95
2023-04-24T22:33:46.930Z,8.94
2023-04-24T22:36:13.960Z,8.92
2023-04-24T22:38:40.712Z,8.91
2023-04-24T22:41:08.295Z,8.92
2023-04-24T22:43:35.006Z,8.96
2023-04-24T22:46:01.837Z,9.00
2023-04-24T22:48:28.597Z,9.05
2023-04-24T22:50:56.152Z,9.07
2023-04-24T22:53:23.239Z,9.10
2023-04-24T22:58:40.994Z,9.18
2023-04-24T23:01:07.991Z,9.18
2023-04-24T23:03:35.961Z,9.21
2023-04-24T23:06:03.155Z,9.24
2023-04-24T23:08:31.022Z,9.25
2023-04-24T23:10:57.850Z,9.26
2023-04-24T23:13:26.017Z,9.25
2023-04-24T23:15:54.715Z,9.23
2023-04-24T23:18:22.096Z,9.20
2023-04-24T23:20:49.115Z,9.17
2023-04-24T23:23:16.681Z,9.13
2023-04-24T23:25:43.529Z,9.10
2023-04-24T23:28:10.598Z,9.11
2023-04-24T23:30:37.354Z,9.13
2023-04-24T23:33:05.108Z,9.16
2023-04-24T23:35:32.036Z,9.19
2023-04-24T23:37:58.877Z,9.22
2023-04-24T23:40:25.612Z,9.25
2023-04-24T23:43:05.624Z,9.28
2023-04-24T23:45:34.261Z,9.32
2023-04-24T23:48:01.196Z,9.35
2023-04-24T23:50:28.024Z,9.38
2023-04-24T23:52:54.778Z,9.39
2023-04-24T23:55:21.573Z,9.39
2023-04-24T23:57:48.322Z,9.41
